createdAt,value
2023-04-16T00:00:43.472Z,12.40
2023-04-16T00:03:34.640Z,10.70
2023-04-16T00:06:06.407Z,9.70
2023-04-16T00:08:37.806Z,8.30
2023-04-16T00:13:38.692Z,10.20
2023-04-16T00:16:10.731Z,10.30
2023-04-16T00:18:41.782Z,7.70
2023-04-16T00:21:12.778Z,9.00
2023-04-16T00:23:45.613Z,10.10
2023-04-16T00:26:17.549Z,11.40
2023-04-16T00:28:48.815Z,9.20
2023-04-16T00:31:19.895Z,12.30
2023-04-16T00:36:20.588Z,11.10
2023-04-16T00:38:52.445Z,11.40
2023-04-16T00:41:23.770Z,11.10
2023-04-16T00:43:55.689Z,11.50
2023-04-16T00:46:27.213Z,12.00
2023-04-16T00:48:58.653Z,12.50
2023-04-16T00:51:29.863Z,14.80
2023-04-16T00:54:01.882Z,14.90
2023-04-16T00:56:33.319Z,19.30
2023-04-16T00:59:04.467Z,13.80
2023-04-16T01:01:36.106Z,12.10
2023-04-16T01:04:08.419Z,8.90
2023-04-16T01:06:39.379Z,9.60
2023-04-16T01:09:11.376Z,7.80
2023-04-16T01:11:42.650Z,6.40
2023-04-16T01:14:13.632Z,7.50
2023-04-16T01:16:44.868Z,8.70
2023-04-16T01:19:16.082Z,7.20
2023-04-16T01:24:16.940Z,7.00
2023-04-16T01:26:48.170Z,7.40
2023-04-16T01:29:19.094Z,6.10
2023-04-16T01:31:50.091Z,7.70
2023-04-16T01:34:21.064Z,7.40
2023-04-16T01:36:52.327Z,6.40
2023-04-16T01:39:23.511Z,8.20
2023-04-16T01:41:54.347Z,5.00
2023-04-16T01:44:25.680Z,7.40
2023-04-16T01:49:26.493Z,7.50
2023-04-16T01:54:27.076Z,9.10
2023-04-16T02:01:58.424Z,6.90
2023-04-16T02:04:29.822Z,7.60
2023-04-16T02:07:00.875Z,9.00
2023-04-16T02:09:32.001Z,5.90
2023-04-16T02:12:03.428Z,6.40
2023-04-16T02:14:35.109Z,8.70
2023-04-16T02:17:06.663Z,7.90
2023-04-16T02:19:37.822Z,7.30
2023-04-16T02:22:08.842Z,6.30
2023-04-16T02:24:39.851Z,5.30
2023-04-16T02:27:11.270Z,6.80
2023-04-16T02:29:42.289Z,7.50
2023-04-16T02:32:13.475Z,6.00
2023-04-16T02:34:44.638Z,5.80
2023-04-16T02:37:16.593Z,7.40
2023-04-16T02:39:49.848Z,5.90
2023-04-16T02:42:20.977Z,5.20
2023-04-16T02:44:52.317Z,5.10
2023-04-16T02:47:23.382Z,8.50
2023-04-16T02:49:54.757Z,6.00
2023-04-16T02:52:26.058Z,5.00
2023-04-16T02:57:26.693Z,6.70
2023-04-16T03:00:00.318Z,6.30
2023-04-16T03:02:32.094Z,6.00
2023-04-16T03:05:03.295Z,7.10
2023-04-16T03:07:34.361Z,4.30
2023-04-16T03:10:05.759Z,3.90
2023-04-16T03:12:37.073Z,5.00
2023-04-16T03:17:38.323Z,4.30
2023-04-16T03:20:12.264Z,6.10
2023-04-16T03:22:43.351Z,6.60
2023-04-16T03:27:44.197Z,4.40
2023-04-16T03:30:16.496Z,5.10
2023-04-16T03:32:47.748Z,5.50
2023-04-16T03:35:19.417Z,6.30
2023-04-16T03:37:50.581Z,5.20
2023-04-16T03:40:22.012Z,5.40
2023-04-16T03:42:53.240Z,5.10
2023-04-16T03:45:24.172Z,5.00
2023-04-16T03:47:55.261Z,5.30
2023-04-16T03:50:26.358Z,5.30
2023-04-16T03:52:57.464Z,5.90
2023-04-16T03:55:29.482Z,3.60
2023-04-16T03:58:03.272Z,5.60
2023-04-16T04:00:34.699Z,5.90
2023-04-16T04:03:06.206Z,5.10
2023-04-16T04:05:40.295Z,4.80
2023-04-16T04:08:11.608Z,7.40
2023-04-16T04:13:12.031Z,5.00
2023-04-16T04:15:43.112Z,4.00
2023-04-16T04:18:14.014Z,5.60
2023-04-16T04:20:45.590Z,5.90
2023-04-16T04:23:16.688Z,7.40
2023-04-16T04:25:48.274Z,5.30
2023-04-16T04:28:19.381Z,4.20
2023-04-16T04:33:20.082Z,5.50
2023-04-16T04:35:52.696Z,5.10
2023-04-16T04:38:25.482Z,4.60
2023-04-16T04:40:56.932Z,5.90
2023-04-16T04:43:28.416Z,5.40
2023-04-16T04:45:59.815Z,4.20
2023-04-16T04:48:30.779Z,5.80
2023-04-16T04:51:05.341Z,3.80
2023-04-16T04:53:36.814Z,4.40
2023-04-16T04:56:12.100Z,5.60
2023-04-16T04:58:44.303Z,6.00
2023-04-16T05:03:45.517Z,6.70
2023-04-16T05:06:16.805Z,7.40
2023-04-16T05:08:48.129Z,5.70
2023-04-16T05:11:19.107Z,6.50
2023-04-16T05:13:50.204Z,8.70
2023-04-16T05:16:21.083Z,20.10
2023-04-16T05:18:56.286Z,22.90
2023-04-16T05:21:27.587Z,20.50
2023-04-16T05:23:59.943Z,15.60
2023-04-16T05:26:31.067Z,12.40
2023-04-16T05:29:02.339Z,13.60
2023-04-16T05:31:33.676Z,12.40
2023-04-16T05:34:04.901Z,12.00
2023-04-16T05:36:36.104Z,13.60
2023-04-16T05:39:08.037Z,14.90
2023-04-16T05:41:39.449Z,10.20
2023-04-16T05:46:39.715Z,7.70
2023-04-16T05:51:41.059Z,9.20
2023-04-16T05:54:12.258Z,8.10
2023-04-16T05:56:43.332Z,8.70
2023-04-16T05:59:14.337Z,9.70
2023-04-16T06:01:45.948Z,20.90
2023-04-16T06:04:17.345Z,13.90
2023-04-16T06:09:18.349Z,9.10
2023-04-16T06:11:49.493Z,8.40
2023-04-16T06:16:49.989Z,6.40
2023-04-16T06:19:21.121Z,8.30
2023-04-16T06:21:52.456Z,7.40
2023-04-16T06:24:23.912Z,7.30
2023-04-16T06:26:55.604Z,7.10
2023-04-16T06:29:36.865Z,6.70
2023-04-16T06:32:11.818Z,7.80
2023-04-16T06:34:42.940Z,6.50
2023-04-16T06:37:14.502Z,8.80
2023-04-16T06:39:45.444Z,7.40
2023-04-16T06:42:16.442Z,8.20
2023-04-16T06:47:17.390Z,8.10
2023-04-16T06:49:48.409Z,7.80
2023-04-16T06:54:48.866Z,5.50
2023-04-16T06:57:20.178Z,6.50
2023-04-16T06:59:51.806Z,4.50
2023-04-16T07:02:23.275Z,5.90
2023-04-16T07:04:54.686Z,7.20
2023-04-16T07:07:26.005Z,6.50
2023-04-16T07:09:57.073Z,7.10
2023-04-16T07:12:28.485Z,6.70
2023-04-16T07:14:59.558Z,5.70
2023-04-16T07:17:30.803Z,7.20
2023-04-16T07:20:01.873Z,11.60
2023-04-16T07:22:34.447Z,12.60
2023-04-16T07:25:06.688Z,9.30
2023-04-16T07:27:37.878Z,8.80
2023-04-16T07:30:10.767Z,11.90
2023-04-16T07:32:41.808Z,20.70
2023-04-16T07:35:13.471Z,19.00
2023-04-16T07:37:45.247Z,15.40
2023-04-16T07:40:16.749Z,13.60
2023-04-16T07:42:48.080Z,10.80
2023-04-16T07:45:20.186Z,9.30
2023-04-16T07:47:51.520Z,10.50
2023-04-16T07:50:22.738Z,11.10
2023-04-16T07:52:54.929Z,9.20
2023-04-16T07:55:26.568Z,12.80
2023-04-16T07:57:57.661Z,19.60
2023-04-16T08:00:28.725Z,14.90
2023-04-16T08:03:00.040Z,15.80
2023-04-16T08:05:31.444Z,7.10
2023-04-16T08:08:02.820Z,4.10
2023-04-16T08:10:34.362Z,6.00
2023-04-16T08:13:08.491Z,4.70
2023-04-16T08:15:39.952Z,6.30
2023-04-16T08:18:15.690Z,5.80
2023-04-16T08:20:46.829Z,4.50
2023-04-16T08:23:18.141Z,23.60
2023-04-16T08:25:49.632Z,7.80
2023-04-16T08:28:21.616Z,10.30
2023-04-16T08:30:53.081Z,12.50
2023-04-16T08:33:24.084Z,13.10
2023-04-16T08:35:55.231Z,10.90
2023-04-16T08:38:26.518Z,8.10
2023-04-16T08:40:58.125Z,6.10
2023-04-16T08:43:34.450Z,6.80
2023-04-16T08:46:06.485Z,4.50
2023-04-16T08:48:38.314Z,5.50
2023-04-16T08:51:13.460Z,6.10
2023-04-16T08:53:54.931Z,4.70
2023-04-16T08:56:27.070Z,5.50
2023-04-16T08:58:58.564Z,5.90
2023-04-16T09:01:29.891Z,7.90
2023-04-16T09:04:02.871Z,5.90
2023-04-16T09:06:35.919Z,6.00
2023-04-16T09:09:08.418Z,4.00
2023-04-16T09:11:40.950Z,5.80
2023-04-16T09:14:14.754Z,4.60
2023-04-16T09:16:47.951Z,4.00
2023-04-16T09:19:19.038Z,6.70
2023-04-16T09:21:51.235Z,4.30
2023-04-16T09:24:24.991Z,5.50
2023-04-16T09:26:57.612Z,7.00
2023-04-16T09:29:49.993Z,3.20
2023-04-16T09:32:28.419Z,4.50
2023-04-16T09:35:01.188Z,3.40
2023-04-16T09:37:33.311Z,5.40
2023-04-16T09:40:05.570Z,8.00
2023-04-16T09:42:38.263Z,2.70
2023-04-16T09:45:10.983Z,3.20
2023-04-16T09:47:47.101Z,2.00
2023-04-16T09:50:19.986Z,1.60
2023-04-16T09:52:52.843Z,2.70
2023-04-16T09:55:29.780Z,2.00
2023-04-16T09:58:03.593Z,2.20
2023-04-16T10:00:35.257Z,1.30
2023-04-16T10:03:14.318Z,1.80
2023-04-16T10:05:45.714Z,2.20
2023-04-16T10:08:18.843Z,2.10
2023-04-16T10:10:49.919Z,2.50
2023-04-16T10:13:21.177Z,2.20
2023-04-16T10:15:52.776Z,3.40
2023-04-16T10:18:24.127Z,2.50
2023-04-16T10:20:56.241Z,3.00
2023-04-16T10:23:27.707Z,4.10
2023-04-16T10:25:59.999Z,2.00
2023-04-16T10:28:31.522Z,2.20
2023-04-16T10:31:04.529Z,3.20
2023-04-16T10:33:37.934Z,3.30
2023-04-16T10:36:14.164Z,2.40
2023-04-16T10:38:50.644Z,2.40
2023-04-16T10:41:22.479Z,2.40
2023-04-16T10:43:54.011Z,2.40
2023-04-16T10:46:27.104Z,3.60
2023-04-16T10:49:01.561Z,2.70
2023-04-16T10:51:34.579Z,3.30
2023-04-16T10:54:21.714Z,2.60
2023-04-16T10:56:54.097Z,2.40
2023-04-16T10:59:26.367Z,4.50
2023-04-16T11:02:00.235Z,3.30
2023-04-16T11:04:37.083Z,3.50
2023-04-16T11:07:16.581Z,2.80
2023-04-16T11:09:55.466Z,5.20
2023-04-16T11:12:29.147Z,3.30
2023-04-16T11:15:04.876Z,2.40
2023-04-16T11:17:40.408Z,6.90
2023-04-16T11:20:20.246Z,4.50
2023-04-16T11:22:52.914Z,3.30
2023-04-16T11:25:24.789Z,2.40
2023-04-16T11:27:57.097Z,2.40
2023-04-16T11:30:34.477Z,3.20
2023-04-16T11:33:06.765Z,2.90
2023-04-16T11:35:39.291Z,2.90
2023-04-16T11:38:10.456Z,2.50
2023-04-16T11:40:43.642Z,1.80
2023-04-16T11:43:17.957Z,2.20
2023-04-16T11:46:00.549Z,1.80
2023-04-16T11:48:49.134Z,1.70
2023-04-16T11:51:21.940Z,1.80
2023-04-16T11:53:54.624Z,2.70
2023-04-16T11:56:34.582Z,2.30
2023-04-16T11:59:13.876Z,2.40
2023-04-16T12:01:49.828Z,1.40
2023-04-16T12:04:24.722Z,2.50
2023-04-16T12:07:19.581Z,1.30
2023-04-16T12:09:50.960Z,1.50
2023-04-16T12:12:33.349Z,1.20
2023-04-16T12:15:05.496Z,1.50
2023-04-16T12:17:37.624Z,2.00
2023-04-16T12:20:12.691Z,1.50
2023-04-16T12:22:47.740Z,1.60
2023-04-16T12:25:20.716Z,3.60
2023-04-16T12:27:54.186Z,1.80
2023-04-16T12:30:26.825Z,1.70
2023-04-16T12:33:17.036Z,2.30
2023-04-16T12:35:48.578Z,1.40
2023-04-16T12:38:20.778Z,1.80
2023-04-16T12:40:57.006Z,1.80
2023-04-16T12:43:28.545Z,1.80
2023-04-16T12:46:00.457Z,2.30
2023-04-16T12:48:33.879Z,2.90
2023-04-16T12:51:05.095Z,2.60
2023-04-16T12:53:36.042Z,2.10
2023-04-16T12:56:07.796Z,1.60
2023-04-16T12:58:39.638Z,2.50
2023-04-16T13:01:12.032Z,1.60
2023-04-16T13:03:43.212Z,1.60
2023-04-16T13:06:15.489Z,1.60
2023-04-16T13:08:47.107Z,1.80
2023-04-16T13:11:19.190Z,2.20
2023-04-16T13:13:50.248Z,1.70
2023-04-16T13:16:21.354Z,2.00
2023-04-16T13:18:52.522Z,2.10
2023-04-16T13:21:24.301Z,1.70
2023-04-16T13:23:55.434Z,2.60
2023-04-16T13:26:26.803Z,1.40
2023-04-16T13:28:58.156Z,1.70
2023-04-16T13:31:29.481Z,1.50
2023-04-16T13:34:00.888Z,12.30
2023-04-16T13:36:32.339Z,3.30
2023-04-16T13:39:11.512Z,16.50
2023-04-16T13:41:42.933Z,7.60
2023-04-16T13:44:13.904Z,13.60
2023-04-16T13:46:47.787Z,5.70
2023-04-16T13:49:18.873Z,4.80
2023-04-16T13:51:49.901Z,3.50
2023-04-16T13:54:21.907Z,4.00
2023-04-16T13:56:54.040Z,4.50
2023-04-16T13:59:25.280Z,3.00
2023-04-16T14:01:56.548Z,2.70
2023-04-16T14:04:27.657Z,3.10
2023-04-16T14:06:59.029Z,2.40
2023-04-16T14:09:30.065Z,3.20
2023-04-16T14:12:01.216Z,8.00
2023-04-16T14:14:32.689Z,4.40
2023-04-16T14:17:04.329Z,2.70
2023-04-16T14:19:35.380Z,2.60
2023-04-16T14:22:08.723Z,2.30
2023-04-16T14:24:40.452Z,1.80
2023-04-16T14:27:12.328Z,1.90
2023-04-16T14:29:43.930Z,1.70
2023-04-16T14:32:15.850Z,1.40
2023-04-16T14:35:05.979Z,1.80
2023-04-16T14:37:37.130Z,1.80
2023-04-16T14:40:11.010Z,2.10
2023-04-16T14:42:45.153Z,2.20
2023-04-16T14:45:16.211Z,4.50
2023-04-16T14:47:48.012Z,1.80
2023-04-16T14:50:19.616Z,2.10
2023-04-16T14:52:51.958Z,1.50
2023-04-16T14:55:23.267Z,2.20
2023-04-16T14:57:54.295Z,2.20
2023-04-16T15:00:25.876Z,1.60
2023-04-16T15:02:57.793Z,2.10
2023-04-16T15:05:29.213Z,3.10
2023-04-16T15:08:00.794Z,2.10
2023-04-16T15:10:32.938Z,1.60
2023-04-16T15:13:04.288Z,1.70
2023-04-16T15:15:35.656Z,6.40
2023-04-16T15:18:07.239Z,2.10
2023-04-16T15:20:38.245Z,3.50
2023-04-16T15:23:09.724Z,2.00
2023-04-16T15:25:40.843Z,2.60
2023-04-16T15:28:11.911Z,3.10
2023-04-16T15:30:43.542Z,2.60
2023-04-16T15:33:14.909Z,13.10
2023-04-16T15:35:45.943Z,3.20
2023-04-16T15:38:17.080Z,1.70
2023-04-16T15:40:48.123Z,1.80
2023-04-16T15:43:19.469Z,1.80
2023-04-16T15:45:50.870Z,2.20
2023-04-16T15:48:22.471Z,1.90
2023-04-16T15:50:55.117Z,1.40
2023-04-16T15:53:26.228Z,1.60
2023-04-16T15:55:57.401Z,1.40
2023-04-16T15:58:28.632Z,2.20
2023-04-16T16:00:59.850Z,2.40
2023-04-16T16:03:33.063Z,2.30
2023-04-16T16:06:05.153Z,2.00
2023-04-16T16:08:38.372Z,3.60
2023-04-16T16:11:09.370Z,3.20
2023-04-16T16:13:41.866Z,2.70
2023-04-16T16:16:13.741Z,2.20
2023-04-16T16:18:44.815Z,2.20
2023-04-16T16:21:16.281Z,1.50
2023-04-16T16:23:47.671Z,1.50
2023-04-16T16:26:20.609Z,2.20
2023-04-16T16:28:51.566Z,2.40
2023-04-16T16:31:22.424Z,2.60
2023-04-16T16:33:53.832Z,1.80
2023-04-16T16:36:24.941Z,3.40
2023-04-16T16:38:56.625Z,3.30
2023-04-16T16:41:27.655Z,2.40
2023-04-16T16:43:59.217Z,2.90
2023-04-16T16:46:30.445Z,2.60
2023-04-16T16:49:01.553Z,2.90
2023-04-16T16:51:33.712Z,2.90
2023-04-16T16:54:04.831Z,3.10
2023-04-16T16:56:35.990Z,2.40
2023-04-16T16:59:07.707Z,2.10
2023-04-16T17:01:38.894Z,2.40
2023-04-16T17:04:10.003Z,3.80
2023-04-16T17:06:41.249Z,2.70
2023-04-16T17:09:12.728Z,3.50
2023-04-16T17:11:44.099Z,5.30
2023-04-16T17:14:15.394Z,2.60
2023-04-16T17:16:49.787Z,2.00
2023-04-16T17:19:20.884Z,3.90
2023-04-16T17:21:53.878Z,3.40
2023-04-16T17:24:25.072Z,3.80
2023-04-16T17:26:57.048Z,4.00
2023-04-16T17:29:28.128Z,4.60
2023-04-16T17:31:59.694Z,4.70
2023-04-16T17:34:30.868Z,6.10
2023-04-16T17:37:01.965Z,4.90
2023-04-16T17:39:33.225Z,7.10
2023-04-16T17:42:04.161Z,10.50
2023-04-16T17:44:35.459Z,6.80
2023-04-16T17:47:06.481Z,6.20
2023-04-16T17:49:37.636Z,5.40
2023-04-16T17:52:08.930Z,4.50
2023-04-16T17:54:40.128Z,2.70
2023-04-16T17:57:11.620Z,3.50
2023-04-16T17:59:42.898Z,2.50
2023-04-16T18:02:14.124Z,3.60
2023-04-16T18:04:45.692Z,2.90
2023-04-16T18:07:17.839Z,3.70
2023-04-16T18:09:48.901Z,2.90
2023-04-16T18:12:20.098Z,3.30
2023-04-16T18:14:51.317Z,4.20
2023-04-16T18:17:23.520Z,3.30
2023-04-16T18:19:55.708Z,3.90
2023-04-16T18:22:32.084Z,4.40
2023-04-16T18:25:03.549Z,5.90
2023-04-16T18:27:34.506Z,4.30
2023-04-16T18:30:06.397Z,7.20
2023-04-16T18:32:43.317Z,4.00
2023-04-16T18:35:26.432Z,5.60
2023-04-16T18:37:57.679Z,5.00
2023-04-16T18:40:29.332Z,21.50
2023-04-16T18:43:00.497Z,7.50
2023-04-16T18:45:34.104Z,5.30
2023-04-16T18:48:06.206Z,4.10
2023-04-16T18:50:38.251Z,5.00
2023-04-16T18:53:09.351Z,4.80
2023-04-16T18:55:40.880Z,4.20
2023-04-16T18:58:12.802Z,3.80
2023-04-16T19:00:44.127Z,4.30
2023-04-16T19:03:15.484Z,3.60
2023-04-16T19:05:46.522Z,2.90
2023-04-16T19:08:18.140Z,3.60
2023-04-16T19:10:51.325Z,6.70
2023-04-16T19:13:22.791Z,3.70
2023-04-16T19:16:00.581Z,5.00
2023-04-16T19:18:31.659Z,4.40
2023-04-16T19:21:03.056Z,2.80
2023-04-16T19:23:34.349Z,6.10
2023-04-16T19:28:35.097Z,5.70
2023-04-16T19:31:06.541Z,6.80
2023-04-16T19:33:37.913Z,5.70
2023-04-16T19:36:10.145Z,6.20
2023-04-16T19:38:41.254Z,6.70
2023-04-16T19:43:42.041Z,6.00
2023-04-16T19:46:13.160Z,4.50
2023-04-16T19:48:44.482Z,5.40
2023-04-16T19:51:15.609Z,7.10
2023-04-16T19:53:46.654Z,5.70
2023-04-16T19:56:18.018Z,6.40
2023-04-16T19:58:49.093Z,5.60
2023-04-16T20:01:20.090Z,7.50
2023-04-16T20:03:51.396Z,6.20
2023-04-16T20:06:22.498Z,4.40
2023-04-16T20:08:53.662Z,7.40
2023-04-16T20:11:25.018Z,5.90
2023-04-16T20:13:56.334Z,5.10
2023-04-16T20:16:27.743Z,4.60
2023-04-16T20:19:08.578Z,6.10
2023-04-16T20:21:40.754Z,5.90
2023-04-16T20:24:12.188Z,5.50
2023-04-16T20:26:43.914Z,6.00
2023-04-16T20:29:14.963Z,5.80
2023-04-16T20:34:17.166Z,4.90
2023-04-16T20:36:48.332Z,4.90
2023-04-16T20:39:20.458Z,5.00
2023-04-16T20:41:56.683Z,4.40
2023-04-16T20:44:33.386Z,4.60
2023-04-16T20:47:05.186Z,7.20
2023-04-16T20:49:36.391Z,4.90
2023-04-16T20:52:08.173Z,5.00
2023-04-16T20:54:39.186Z,6.50
2023-04-16T20:57:10.430Z,5.00
2023-04-16T20:59:41.616Z,5.30
2023-04-16T21:02:12.981Z,5.80
2023-04-16T21:04:44.666Z,4.10
2023-04-16T21:07:16.645Z,4.60
2023-04-16T21:09:47.902Z,3.70
2023-04-16T21:12:19.035Z,3.80
2023-04-16T21:14:49.858Z,7.30
2023-04-16T21:17:21.022Z,5.40
2023-04-16T21:19:51.917Z,6.10
2023-04-16T21:22:23.298Z,9.50
2023-04-16T21:24:54.573Z,11.60
2023-04-16T21:27:25.923Z,10.30
2023-04-16T21:29:56.988Z,10.20
2023-04-16T21:32:28.275Z,7.70
2023-04-16T21:34:59.434Z,6.80
2023-04-16T21:37:30.385Z,5.80
2023-04-16T21:42:31.491Z,6.80
2023-04-16T21:45:02.480Z,6.30
2023-04-16T21:47:33.569Z,5.20
2023-04-16T21:52:40.467Z,3.60
2023-04-16T21:55:12.306Z,3.40
2023-04-16T21:57:43.455Z,4.30
2023-04-16T22:02:45.646Z,4.50
2023-04-16T22:05:17.048Z,4.60
2023-04-16T22:10:18.073Z,5.20
2023-04-16T22:15:18.689Z,4.20
2023-04-16T22:17:52.371Z,5.40
2023-04-16T22:20:23.544Z,4.40
2023-04-16T22:22:57.845Z,5.40
2023-04-16T22:25:29.061Z,4.90
2023-04-16T22:28:00.737Z,3.60
2023-04-16T22:30:32.035Z,6.20
2023-04-16T22:33:03.860Z,5.40
2023-04-16T22:35:36.017Z,4.30
2023-04-16T22:38:07.866Z,6.70
2023-04-16T22:40:38.860Z,4.40
2023-04-16T22:43:10.595Z,4.10
2023-04-16T22:45:43.073Z,6.50
2023-04-16T22:48:14.130Z,4.90
2023-04-16T22:50:51.003Z,6.20
2023-04-16T22:53:22.195Z,4.10
2023-04-16T22:55:53.921Z,5.80
2023-04-16T22:58:24.971Z,5.20
2023-04-16T23:00:56.739Z,6.40
2023-04-16T23:03:28.065Z,5.20
2023-04-16T23:05:59.139Z,9.00
2023-04-16T23:08:30.062Z,5.50
2023-04-16T23:11:01.221Z,7.10
2023-04-16T23:13:32.962Z,4.90
2023-04-16T23:16:03.934Z,6.40
2023-04-16T23:18:35.029Z,8.50
2023-04-16T23:23:36.060Z,7.90
2023-04-16T23:26:07.753Z,5.60
2023-04-16T23:28:38.746Z,7.60
2023-04-16T23:31:09.723Z,7.10
2023-04-16T23:33:40.847Z,9.10
2023-04-16T23:36:12.741Z,7.60
2023-04-16T23:38:43.787Z,8.00
2023-04-16T23:41:14.734Z,10.40
2023-04-16T23:43:45.819Z,15.30
2023-04-16T23:46:16.751Z,12.50
2023-04-16T23:48:50.283Z,7.50
2023-04-16T23:51:21.223Z,10.90
2023-04-16T23:53:52.144Z,8.50
2023-04-16T23:58:53.627Z,8.30
